Historyczne dane pomiarowe

Dodano dane terminowe – wersja testowa.

Dane z okresu 1951-2019

Wersja bazy: 1.34 [2019-03-16, lista zmian], aktualizacja planowana na 2019-04-15

Dane meteo z obszaru Polski uzyskane na podstawie danych udostępnionych przez Instytut Meteorologii i Gospodarki Wodnej – Państwowy Instytut Badawczy.

 

Wybierz Datę:    

       

TemperaturaWilgotnośćZachmurzenieWiatrCiśnienieWidzialnośćZjawiska
 Data    tng td wb rh cc ccl cl cm ch dir g1 g2 mslp ppp      
1999-08-04 00:00:00 4.9--- 2.7 3.986wxwxwx5wx--- 801.9 0.0---wx
1999-08-04 01:00:00 4.1--- 2.7 3.490wxwxwx4wx--- 801.8----wx
1999-08-04 02:00:00 4.2--- 3.4 3.995wxwxwx4wx--- 801.7----wx
1999-08-04 03:00:00 4.1--- 3.1 3.793wxwxwx5wx--- 801.6----wx
1999-08-04 04:00:00 4.6--- 4.1 4.497wxwxwx5wx--- 801.8----wx
1999-08-04 05:00:00 4.8--- 4.6 4.798wxwxwx3wx--- 801.9----wx
1999-08-04 06:00:00 5.8--- 4.6 5.392wxwxwx4wx--- 801.8 0.0---wxw1
1999-08-04 07:00:00 7.4--- 6.1 6.792wxwxwx2wx--- 802.0----wx
1999-08-04 08:00:00 8.0--- 6.7 7.391wxwxwx1wx--- 802.3----wx
1999-08-04 09:00:00 7.9--- 6.5 7.291wxwxwx2wx--- 802.5----wx
1999-08-04 10:00:00 7.9--- 6.4 7.190wxwxwx1wx--- 802.5----wx
1999-08-04 11:00:00 7.2--- 6.8 7.097wxwxwx1wx--- 802.6----wx
1999-08-04 12:00:00 8.0--- 6.7 7.391wxwxwx1wx--- 802.6 0.0---wxw1
1999-08-04 13:00:00 9.0--- 6.8 7.986wxwxwx1wx--- 802.6----wx
1999-08-04 14:00:00 8.0--- 7.4 7.796wxwxwx2wx--- 802.3----wx
1999-08-04 15:00:00 7.9--- 7.0 7.594wxwxwxwx3wx--- 802.4----wx
1999-08-04 16:00:00 7.7--- 6.8 7.394wxwxwx3wx--- 802.4----wx
1999-08-04 17:00:00 7.7--- 6.4 7.091wxwxwx2wx--- 802.5----wx
1999-08-04 18:00:00 7.2--- 6.4 6.894wxwxwx3wx--- 802.4 0.5---wxw1
1999-08-04 19:00:00 6.9--- 5.1 6.089wxwxwx2wx--- 802.7----wx
1999-08-04 20:00:00 6.7--- 5.6 6.293wxwx1wx--- 802.8----wx
1999-08-04 21:00:00 7.0--- 4.0 5.581wxwx1wx--- 802.7----wx
1999-08-04 22:00:00 6.6--- 4.3 5.586wxwx1wx--- 802.6----wx
1999-08-04 23:00:00 6.4--- 3.4 5.081wxwx1wx--- 802.7----wx

 

Źródłem pochodzenia danych jest Instytut Meteorologii i Gospodarki Wodnej – Państwowy Instytut Badawczy. Dane Instytutu Meteorologii i Gospodarki Wodnej – Państwowego Instytutu Badawczego zostały przetworzone.

Dane źródłowe można odnaleźć na stronie https://dane.imgw.pl